createdAt,value
2019-06-10T00:02:11.024Z,2.33
2019-06-10T00:04:37.925Z,2.22
2019-06-10T00:07:05.863Z,2.22
2019-06-10T00:09:32.849Z,2.60
2019-06-10T00:12:01.536Z,2.40
2019-06-10T00:14:27.469Z,2.50
2019-06-10T00:16:54.008Z,2.58
2019-06-10T00:19:21.737Z,2.45
2019-06-10T00:21:50.734Z,2.42
2019-06-10T00:24:16.631Z,2.30
2019-06-10T00:26:43.061Z,2.42
2019-06-10T00:29:11.784Z,2.65
2019-06-10T00:31:37.645Z,2.10
2019-06-10T00:34:05.038Z,2.87
2019-06-10T00:36:32.108Z,2.15
2019-06-10T00:38:59.355Z,2.37
2019-06-10T00:41:25.878Z,2.25
2019-06-10T00:43:52.229Z,2.20
2019-06-10T00:46:21.065Z,2.47
2019-06-10T00:48:46.996Z,2.20
2019-06-10T00:51:13.370Z,2.37
2019-06-10T00:53:42.136Z,2.22
2019-06-10T00:56:09.690Z,2.17
2019-06-10T00:58:36.507Z,2.15
2019-06-10T01:01:04.273Z,2.10
2019-06-10T01:03:32.911Z,2.27
2019-06-10T01:06:01.616Z,2.52
2019-06-10T01:08:27.725Z,2.40
2019-06-10T01:10:54.303Z,2.25
2019-06-10T01:13:20.947Z,1.90
2019-06-10T01:15:47.441Z,2.30
2019-06-10T01:18:31.986Z,2.30
2019-06-10T01:20:42.268Z,1.92
2019-06-10T01:23:09.807Z,2.35
2019-06-10T01:25:37.272Z,2.15
2019-06-10T01:28:03.571Z,2.12
2019-06-10T01:30:31.212Z,2.10
2019-06-10T01:32:58.149Z,2.20
2019-06-10T01:35:24.681Z,2.00
2019-06-10T01:37:52.003Z,2.30
2019-06-10T01:40:20.453Z,1.90
2019-06-10T01:42:46.882Z,2.05
2019-06-10T01:45:15.518Z,2.10
2019-06-10T01:47:41.835Z,1.98
2019-06-10T01:50:11.899Z,2.00
2019-06-10T01:52:37.526Z,2.20
2019-06-10T01:55:07.466Z,2.10
2019-06-10T01:57:34.099Z,1.98
2019-06-10T02:00:00.966Z,2.12
2019-06-10T02:02:34.487Z,2.20
2019-06-10T02:04:57.372Z,1.92
2019-06-10T02:07:24.002Z,2.10
2019-06-10T02:09:51.722Z,1.75
2019-06-10T02:12:20.169Z,1.90
2019-06-10T02:14:46.929Z,1.90
2019-06-10T02:17:16.057Z,2.00
2019-06-10T02:19:41.591Z,2.00
2019-06-10T02:22:08.069Z,2.58
2019-06-10T02:24:34.507Z,1.90
2019-06-10T02:27:01.138Z,2.00
2019-06-10T02:29:27.738Z,2.50
2019-06-10T02:31:54.342Z,1.95
2019-06-10T02:34:26.832Z,1.87
2019-06-10T02:36:49.231Z,2.05
2019-06-10T02:39:21.452Z,1.82
2019-06-10T02:41:44.768Z,1.92
2019-06-10T02:44:17.267Z,2.20
2019-06-10T02:46:43.610Z,1.82
2019-06-10T02:49:26.464Z,2.02
2019-06-10T02:51:36.803Z,1.90
2019-06-10T02:54:04.846Z,2.10
2019-06-10T02:56:36.196Z,2.22
2019-06-10T02:58:59.850Z,2.20
2019-06-10T03:01:30.532Z,2.30
2019-06-10T03:03:54.649Z,2.20
2019-06-10T03:06:30.346Z,2.00
2019-06-10T03:08:49.965Z,2.58
2019-06-10T03:11:18.270Z,2.33
2019-06-10T03:13:44.795Z,2.10
2019-06-10T03:16:13.231Z,2.12
2019-06-10T03:18:39.832Z,2.10
2019-06-10T03:21:06.344Z,2.20
2019-06-10T03:23:32.631Z,2.30
2019-06-10T03:26:00.442Z,2.15
2019-06-10T03:28:27.794Z,2.45
2019-06-10T03:30:58.960Z,2.30
2019-06-10T03:33:31.505Z,2.10
2019-06-10T03:35:52.728Z,2.00
2019-06-10T03:38:23.072Z,2.85
2019-06-10T03:40:49.327Z,2.10
2019-06-10T03:43:16.701Z,2.60
2019-06-10T03:45:44.549Z,2.10
2019-06-10T03:48:13.004Z,2.08
2019-06-10T03:50:39.179Z,2.12
2019-06-10T03:53:05.736Z,1.90
2019-06-10T03:55:33.079Z,1.90
2019-06-10T03:58:02.068Z,2.12
2019-06-10T04:00:28.971Z,1.92
2019-06-10T04:02:55.425Z,1.70
2019-06-10T04:05:23.859Z,2.12
2019-06-10T04:07:49.827Z,2.10
2019-06-10T04:10:17.427Z,2.00
2019-06-10T04:12:44.229Z,2.10
2019-06-10T04:15:12.386Z,2.20
2019-06-10T04:17:38.970Z,2.05
2019-06-10T04:20:11.512Z,2.00
2019-06-10T04:22:34.048Z,2.37
2019-06-10T04:25:02.814Z,2.00
2019-06-10T04:27:28.600Z,2.47
2019-06-10T04:29:54.814Z,2.12
2019-06-10T04:32:23.154Z,2.35
2019-06-10T04:34:49.332Z,2.10
2019-06-10T04:37:15.709Z,2.10
2019-06-10T04:39:42.730Z,2.27
2019-06-10T04:42:09.286Z,2.17
2019-06-10T04:44:35.658Z,2.40
2019-06-10T04:47:02.761Z,2.12
2019-06-10T04:49:29.804Z,2.35
2019-06-10T04:51:56.037Z,2.25
2019-06-10T04:54:23.839Z,2.00
2019-06-10T04:56:52.893Z,2.35
2019-06-10T04:59:19.340Z,2.00
2019-06-10T05:01:46.405Z,2.00
2019-06-10T05:04:12.799Z,1.72
2019-06-10T05:06:39.309Z,1.80
2019-06-10T05:09:05.710Z,1.70
2019-06-10T05:11:33.117Z,1.90
2019-06-10T05:14:02.529Z,2.00
2019-06-10T05:16:30.851Z,1.95
2019-06-10T05:18:56.186Z,1.95
2019-06-10T05:21:25.048Z,2.10
2019-06-10T05:23:52.191Z,2.00
2019-06-10T05:26:19.913Z,1.90
2019-06-10T05:28:46.734Z,2.10
2019-06-10T05:31:13.294Z,2.33
2019-06-10T05:33:42.357Z,1.82
2019-06-10T05:36:08.104Z,2.00
2019-06-10T05:38:35.311Z,2.10
2019-06-10T05:41:02.873Z,1.90
2019-06-10T05:43:29.797Z,1.85
2019-06-10T05:45:56.265Z,2.00
2019-06-10T05:48:23.927Z,1.82
2019-06-10T05:51:02.024Z,1.70
2019-06-10T05:53:18.981Z,2.10
2019-06-10T05:55:45.358Z,1.85
2019-06-10T05:58:12.915Z,1.70
2019-06-10T06:00:39.337Z,2.15
2019-06-10T06:03:05.687Z,2.00
2019-06-10T06:05:33.273Z,1.70
2019-06-10T06:08:05.597Z,1.67
2019-06-10T06:10:29.464Z,1.62
2019-06-10T06:12:56.105Z,1.60
2019-06-10T06:15:22.553Z,1.80
2019-06-10T06:18:04.076Z,1.60
2019-06-10T06:20:17.457Z,1.60
2019-06-10T06:22:43.833Z,1.70
2019-06-10T06:25:14.677Z,1.67
2019-06-10T06:27:41.666Z,1.77
2019-06-10T06:30:14.648Z,1.75
2019-06-10T06:32:36.983Z,1.50
2019-06-10T06:35:04.989Z,1.70
2019-06-10T06:37:34.666Z,1.70
2019-06-10T06:39:59.605Z,1.77
2019-06-10T06:42:25.851Z,1.25
2019-06-10T06:44:52.564Z,1.52
2019-06-10T06:47:19.357Z,1.70
2019-06-10T06:49:45.603Z,1.55
2019-06-10T06:52:12.818Z,1.65
2019-06-10T06:54:39.465Z,1.60
2019-06-10T06:57:05.996Z,1.60
2019-06-10T06:59:34.271Z,1.60
2019-06-10T07:02:02.619Z,1.47
2019-06-10T07:04:29.652Z,1.60
2019-06-10T07:06:56.305Z,1.52
2019-06-10T07:09:23.560Z,1.70
2019-06-10T07:11:52.982Z,1.50
2019-06-10T07:14:19.985Z,1.50
2019-06-10T07:16:46.876Z,1.35
2019-06-10T07:19:13.312Z,1.75
2019-06-10T07:21:58.419Z,1.22
2019-06-10T07:24:07.831Z,1.35
2019-06-10T07:26:38.775Z,1.30
2019-06-10T07:29:02.978Z,1.42
2019-06-10T07:31:29.370Z,1.40
2019-06-10T07:33:55.662Z,1.50
2019-06-10T07:36:23.603Z,1.25
2019-06-10T07:38:53.570Z,1.30
2019-06-10T07:41:18.117Z,1.40
2019-06-10T07:43:49.390Z,1.30
2019-06-10T07:46:13.491Z,1.40
2019-06-10T07:48:42.202Z,1.20
2019-06-10T07:51:08.197Z,1.10
2019-06-10T07:53:36.505Z,1.30
2019-06-10T07:56:03.583Z,1.15
2019-06-10T07:58:32.595Z,1.10
2019-06-10T08:00:58.457Z,1.37
2019-06-10T08:03:24.809Z,1.15
2019-06-10T08:05:52.563Z,1.30
2019-06-10T08:08:19.006Z,1.10
2019-06-10T08:10:46.418Z,1.40
2019-06-10T08:13:13.295Z,1.32
2019-06-10T08:15:39.835Z,1.47
2019-06-10T08:18:07.921Z,1.30
2019-06-10T08:20:47.686Z,1.12
2019-06-10T08:23:16.121Z,1.32
2019-06-10T08:25:46.808Z,1.10
2019-06-10T08:28:13.425Z,1.30
2019-06-10T08:30:42.615Z,1.27
2019-06-10T08:33:09.138Z,1.42
2019-06-10T08:35:42.008Z,1.40
2019-06-10T08:38:03.861Z,1.40
2019-06-10T08:40:32.419Z,1.40
2019-06-10T08:42:58.449Z,1.35
2019-06-10T08:45:24.808Z,1.10
2019-06-10T08:47:54.037Z,1.45
2019-06-10T08:50:21.898Z,1.40
2019-06-10T08:53:03.706Z,1.10
2019-06-10T08:55:16.217Z,1.32
2019-06-10T08:57:46.334Z,1.30
2019-06-10T09:00:15.124Z,1.30
2019-06-10T09:02:40.996Z,1.17
2019-06-10T09:05:14.429Z,1.40
2019-06-10T09:07:43.743Z,1.30
2019-06-10T09:10:08.939Z,1.05
2019-06-10T09:12:36.718Z,1.10
2019-06-10T09:15:06.645Z,1.12
2019-06-10T09:17:33.869Z,1.50
2019-06-10T09:20:02.410Z,1.12
2019-06-10T09:22:28.620Z,1.17
2019-06-10T09:24:56.250Z,1.20
2019-06-10T09:27:26.763Z,0.90
2019-06-10T09:29:55.223Z,1.32
2019-06-10T09:32:19.501Z,1.02
2019-06-10T09:34:51.618Z,1.00
2019-06-10T09:37:13.953Z,1.20
2019-06-10T09:39:43.719Z,1.17
2019-06-10T09:42:08.579Z,1.07
2019-06-10T09:44:34.905Z,0.98
2019-06-10T09:47:03.537Z,1.10
2019-06-10T09:49:32.802Z,1.10
2019-06-10T09:51:58.252Z,1.25
2019-06-10T09:54:24.697Z,1.10
2019-06-10T09:56:54.494Z,1.20
2019-06-10T09:59:19.093Z,1.00
2019-06-10T10:01:50.295Z,1.12
2019-06-10T10:04:14.382Z,1.15
2019-06-10T10:06:42.086Z,0.90
2019-06-10T10:09:09.183Z,0.90
2019-06-10T10:11:35.433Z,0.98
2019-06-10T10:14:06.490Z,0.90
2019-06-10T10:16:30.041Z,1.00
2019-06-10T10:19:00.556Z,1.10
2019-06-10T10:21:24.864Z,1.10
2019-06-10T10:24:06.271Z,0.95
2019-06-10T10:26:19.370Z,1.00
2019-06-10T10:28:48.046Z,0.93
2019-06-10T10:31:14.157Z,1.10
2019-06-10T10:33:40.411Z,1.12
2019-06-10T10:36:06.774Z,1.27
2019-06-10T10:38:34.471Z,1.00
2019-06-10T10:41:04.222Z,1.00
2019-06-10T10:43:36.491Z,1.30
2019-06-10T10:46:00.147Z,1.00
2019-06-10T10:48:25.758Z,1.45
2019-06-10T10:50:55.514Z,1.20
2019-06-10T10:53:21.443Z,0.98
2019-06-10T10:55:49.230Z,1.10
2019-06-10T10:58:15.721Z,0.98
2019-06-10T11:00:45.503Z,1.07
2019-06-10T11:03:13.379Z,1.10
2019-06-10T11:05:40.197Z,1.42
2019-06-10T11:08:07.564Z,1.02
2019-06-10T11:10:34.510Z,1.07
2019-06-10T11:13:10.053Z,1.00
2019-06-10T11:15:36.522Z,1.20
2019-06-10T11:18:04.768Z,1.00
2019-06-10T11:20:33.520Z,1.20
2019-06-10T11:22:59.377Z,1.47
2019-06-10T11:25:25.633Z,1.10
2019-06-10T11:27:53.014Z,1.37
2019-06-10T11:30:21.196Z,1.17
2019-06-10T11:32:48.001Z,1.20
2019-06-10T11:35:14.840Z,1.17
2019-06-10T11:37:42.283Z,1.00
2019-06-10T11:40:09.769Z,0.90
2019-06-10T11:42:36.121Z,1.20
2019-06-10T11:45:06.183Z,0.93
2019-06-10T11:47:32.976Z,1.17
2019-06-10T11:49:59.581Z,1.05
2019-06-10T11:52:25.845Z,1.00
2019-06-10T11:55:07.987Z,0.93
2019-06-10T11:57:20.153Z,1.20
2019-06-10T11:59:46.413Z,1.00
2019-06-10T12:02:13.290Z,1.05
2019-06-10T12:04:39.731Z,1.10
2019-06-10T12:07:05.981Z,1.20
2019-06-10T12:09:33.333Z,1.00
2019-06-10T12:12:02.244Z,1.30
2019-06-10T12:14:28.029Z,1.12
2019-06-10T12:19:23.507Z,1.10
2019-06-10T12:21:53.457Z,1.07
2019-06-10T12:24:18.230Z,1.22
2019-06-10T12:26:44.580Z,1.15
2019-06-10T12:29:12.385Z,0.98
2019-06-10T12:31:39.125Z,1.07
2019-06-10T12:34:06.127Z,1.17
2019-06-10T12:36:32.867Z,1.20
2019-06-10T12:39:06.775Z,1.20
2019-06-10T12:41:27.593Z,1.00
2019-06-10T12:43:54.835Z,1.10
2019-06-10T12:46:23.203Z,1.30
2019-06-10T12:48:49.653Z,1.02
2019-06-10T12:51:16.100Z,1.17
2019-06-10T12:53:43.155Z,1.20
2019-06-10T12:56:14.004Z,1.25
2019-06-10T12:58:38.163Z,1.10
2019-06-10T13:01:06.076Z,1.37
2019-06-10T13:03:33.607Z,1.07
2019-06-10T13:06:02.874Z,1.02
2019-06-10T13:08:33.302Z,1.20
2019-06-10T13:10:59.880Z,1.25
2019-06-10T13:13:26.388Z,1.30
2019-06-10T13:15:53.413Z,1.45
2019-06-10T13:18:20.019Z,1.20
2019-06-10T13:20:46.368Z,1.35
2019-06-10T13:23:24.659Z,1.10
2019-06-10T13:25:51.229Z,1.20
2019-06-10T13:28:09.836Z,1.40
2019-06-10T13:30:36.242Z,1.35
2019-06-10T13:33:09.010Z,1.45
2019-06-10T13:35:32.173Z,1.20
2019-06-10T13:37:59.068Z,2.45
2019-06-10T13:40:26.269Z,1.60
2019-06-10T13:42:52.810Z,1.77
2019-06-10T13:45:19.959Z,1.10
2019-06-10T13:47:46.328Z,1.40
2019-06-10T13:50:14.865Z,1.27
2019-06-10T13:52:42.613Z,1.30
2019-06-10T13:55:13.038Z,1.40
2019-06-10T13:57:38.117Z,1.45
2019-06-10T14:00:08.461Z,1.62
2019-06-10T14:02:36.051Z,1.65
2019-06-10T14:05:09.131Z,1.57
2019-06-10T14:07:35.206Z,1.62
2019-06-10T14:10:07.696Z,1.30
2019-06-10T14:12:32.416Z,1.40
2019-06-10T14:14:58.764Z,1.50
2019-06-10T14:17:25.041Z,1.75
2019-06-10T14:19:51.453Z,1.57
2019-06-10T14:22:17.720Z,1.47
2019-06-10T14:24:44.093Z,1.30
2019-06-10T14:27:11.474Z,1.45
2019-06-10T14:29:38.489Z,1.20
2019-06-10T14:32:05.784Z,1.37
2019-06-10T14:34:32.615Z,1.70
2019-06-10T14:36:59.241Z,1.47
2019-06-10T14:39:25.597Z,1.50
2019-06-10T14:41:52.274Z,1.30
2019-06-10T14:44:19.097Z,1.17
2019-06-10T14:46:45.549Z,1.32
2019-06-10T14:49:14.976Z,1.35
2019-06-10T14:51:39.967Z,1.50
2019-06-10T14:54:07.223Z,1.42
2019-06-10T14:56:33.792Z,1.52
2019-06-10T14:59:02.274Z,1.50
2019-06-10T15:01:28.407Z,1.40
2019-06-10T15:03:54.759Z,1.65
2019-06-10T15:06:22.715Z,1.20
2019-06-10T15:08:49.487Z,1.20
2019-06-10T15:11:15.956Z,1.32
2019-06-10T15:13:43.471Z,1.25
2019-06-10T15:16:10.329Z,1.20
2019-06-10T15:18:36.680Z,1.15
2019-06-10T15:21:03.436Z,1.35
2019-06-10T15:23:32.279Z,1.65
2019-06-10T15:25:58.048Z,1.77
2019-06-10T15:28:24.284Z,1.47
2019-06-10T15:30:52.422Z,2.12
2019-06-10T15:33:19.714Z,1.37
2019-06-10T15:35:46.368Z,1.80
2019-06-10T15:38:15.669Z,1.42
2019-06-10T15:40:43.139Z,1.50
2019-06-10T15:43:09.646Z,1.60
2019-06-10T15:45:35.908Z,2.08
2019-06-10T15:48:02.611Z,1.50
2019-06-10T15:50:29.009Z,2.00
2019-06-10T15:52:55.359Z,2.10
2019-06-10T15:55:42.422Z,1.90
2019-06-10T15:57:49.994Z,1.77
2019-06-10T16:00:21.858Z,1.52
2019-06-10T16:02:45.485Z,1.82
2019-06-10T16:05:14.049Z,1.65
2019-06-10T16:07:42.341Z,1.35
2019-06-10T16:10:08.873Z,1.50
2019-06-10T16:12:35.218Z,1.40
2019-06-10T16:15:02.881Z,1.40
2019-06-10T16:17:30.141Z,1.20
2019-06-10T16:19:57.273Z,1.40
2019-06-10T16:22:24.948Z,1.22
2019-06-10T16:24:52.600Z,1.20
2019-06-10T16:27:20.474Z,1.42
2019-06-10T16:29:47.092Z,1.27
2019-06-10T16:32:14.569Z,1.32
2019-06-10T16:34:41.097Z,1.62
2019-06-10T16:37:07.855Z,1.40
2019-06-10T16:39:34.393Z,1.42
2019-06-10T16:42:02.842Z,1.30
2019-06-10T16:44:29.012Z,1.32
2019-06-10T16:46:55.390Z,1.37
2019-06-10T16:49:21.649Z,1.30
2019-06-10T16:51:47.997Z,1.30
2019-06-10T16:54:14.258Z,1.65
2019-06-10T16:56:43.337Z,1.30
2019-06-10T16:59:08.637Z,1.37
2019-06-10T17:01:35.132Z,1.60
2019-06-10T17:04:01.589Z,1.42
2019-06-10T17:06:27.938Z,1.20
2019-06-10T17:08:54.317Z,1.52
2019-06-10T17:11:23.666Z,1.60
2019-06-10T17:13:49.001Z,1.45
2019-06-10T17:16:15.397Z,1.55
2019-06-10T17:18:41.770Z,1.20
2019-06-10T17:21:08.245Z,1.30
2019-06-10T17:23:36.423Z,1.60
2019-06-10T17:26:02.869Z,1.37
2019-06-10T17:28:33.926Z,1.47
2019-06-10T17:30:58.531Z,1.25
2019-06-10T17:33:27.209Z,1.35
2019-06-10T17:35:53.144Z,1.57
2019-06-10T17:38:20.569Z,1.62
2019-06-10T17:40:47.172Z,1.20
2019-06-10T17:43:13.539Z,1.20
2019-06-10T17:45:42.081Z,1.32
2019-06-10T17:48:08.137Z,1.32
2019-06-10T17:50:34.582Z,1.10
2019-06-10T17:53:02.608Z,1.80
2019-06-10T17:55:30.574Z,1.40
2019-06-10T17:57:57.296Z,1.20
2019-06-10T18:00:26.126Z,1.22
2019-06-10T18:02:53.595Z,1.42
2019-06-10T18:05:22.528Z,1.27
2019-06-10T18:07:48.394Z,1.55
2019-06-10T18:10:15.728Z,1.27
2019-06-10T18:12:42.476Z,1.27
2019-06-10T18:15:08.966Z,1.42
2019-06-10T18:17:36.371Z,1.27
2019-06-10T18:20:06.621Z,1.10
2019-06-10T18:22:34.639Z,1.40
2019-06-10T18:25:05.911Z,1.52
2019-06-10T18:27:34.060Z,1.30
2019-06-10T18:30:02.438Z,1.50
2019-06-10T18:32:29.468Z,1.40
2019-06-10T18:34:56.029Z,1.60
2019-06-10T18:37:22.850Z,1.57
2019-06-10T18:39:49.325Z,1.30
2019-06-10T18:42:15.777Z,1.15
2019-06-10T18:44:42.132Z,1.17
2019-06-10T18:47:08.589Z,1.47
2019-06-10T18:49:36.216Z,1.37
2019-06-10T18:52:03.205Z,1.27
2019-06-10T18:54:29.599Z,1.52
2019-06-10T18:56:56.116Z,1.15
2019-06-10T18:59:22.354Z,1.42
2019-06-10T19:01:48.806Z,1.40
2019-06-10T19:04:15.058Z,1.20
2019-06-10T19:06:43.173Z,1.72
2019-06-10T19:09:12.613Z,1.32
2019-06-10T19:11:38.817Z,1.50
2019-06-10T19:14:06.774Z,1.40
2019-06-10T19:16:35.417Z,1.65
2019-06-10T19:19:02.705Z,1.27
2019-06-10T19:21:30.046Z,1.90
2019-06-10T19:23:56.688Z,1.55
2019-06-10T19:26:22.957Z,1.20
2019-06-10T19:28:49.296Z,1.45
2019-06-10T19:31:15.606Z,1.20
2019-06-10T19:33:45.213Z,1.30
2019-06-10T19:36:09.987Z,1.30
2019-06-10T19:38:38.025Z,1.30
2019-06-10T19:41:04.677Z,1.30
2019-06-10T19:43:33.320Z,1.40
2019-06-10T19:45:59.928Z,1.35
2019-06-10T19:48:26.927Z,1.30
2019-06-10T19:50:53.844Z,1.20
2019-06-10T19:53:22.202Z,1.20
2019-06-10T19:55:48.665Z,1.50
2019-06-10T19:58:14.920Z,0.98
2019-06-10T20:00:41.593Z,1.10
2019-06-10T20:03:09.497Z,1.12
2019-06-10T20:05:36.186Z,1.20
2019-06-10T20:08:03.180Z,1.17
2019-06-10T20:10:31.957Z,1.30
2019-06-10T20:12:58.021Z,1.40
2019-06-10T20:15:25.145Z,1.10
2019-06-10T20:17:52.490Z,1.30
2019-06-10T20:20:22.617Z,1.40
2019-06-10T20:25:17.106Z,1.10
2019-06-10T20:27:45.415Z,1.27
2019-06-10T20:30:24.406Z,1.25
2019-06-10T20:32:41.618Z,1.30
2019-06-10T20:35:12.383Z,1.30
2019-06-10T20:37:39.566Z,1.35
2019-06-10T20:40:06.484Z,1.32
2019-06-10T20:42:32.938Z,1.50
2019-06-10T20:44:59.446Z,1.27
2019-06-10T20:47:25.817Z,1.52
2019-06-10T20:49:56.010Z,1.25
2019-06-10T20:52:22.157Z,1.60
2019-06-10T20:54:49.954Z,1.40
2019-06-10T20:57:16.708Z,1.40
2019-06-10T20:59:45.236Z,1.37
2019-06-10T21:02:13.531Z,1.52
2019-06-10T21:04:41.684Z,1.37
2019-06-10T21:07:09.785Z,1.60
2019-06-10T21:09:37.541Z,1.50
2019-06-10T21:12:04.013Z,1.35
2019-06-10T21:14:30.397Z,1.57
2019-06-10T21:16:56.880Z,1.67
2019-06-10T21:19:23.565Z,1.60
2019-06-10T21:21:54.208Z,1.60
2019-06-10T21:24:18.377Z,1.50
2019-06-10T21:26:47.054Z,1.55
2019-06-10T21:29:13.000Z,1.45
2019-06-10T21:31:39.357Z,1.50
2019-06-10T21:34:05.719Z,1.62
2019-06-10T21:36:32.248Z,1.60
2019-06-10T21:38:58.643Z,1.60
2019-06-10T21:41:24.985Z,1.60
2019-06-10T21:43:57.592Z,1.72
2019-06-10T21:46:22.453Z,1.50
2019-06-10T21:48:48.954Z,2.02
2019-06-10T21:51:15.920Z,1.92
2019-06-10T21:53:42.453Z,1.77
2019-06-10T21:56:09.345Z,1.62
2019-06-10T21:58:35.719Z,1.90
2019-06-10T22:01:12.628Z,1.50
2019-06-10T22:03:32.240Z,1.70
2019-06-10T22:05:58.794Z,1.67
2019-06-10T22:08:25.252Z,1.60
2019-06-10T22:10:54.605Z,1.90
2019-06-10T22:13:19.653Z,1.70
2019-06-10T22:15:46.320Z,1.87
2019-06-10T22:18:12.982Z,1.70
2019-06-10T22:20:39.217Z,2.15
2019-06-10T22:23:05.683Z,1.62
2019-06-10T22:25:32.867Z,1.82
2019-06-10T22:27:59.274Z,1.70
2019-06-10T22:30:25.745Z,2.12
2019-06-10T22:32:54.868Z,2.00
2019-06-10T22:35:20.157Z,1.87
2019-06-10T22:37:47.697Z,1.92
2019-06-10T22:40:14.361Z,2.00
2019-06-10T22:42:40.719Z,2.02
2019-06-10T22:45:07.877Z,1.98
2019-06-10T22:47:34.123Z,2.02
2019-06-10T22:50:04.846Z,1.90
2019-06-10T22:52:28.606Z,2.20
2019-06-10T22:54:56.991Z,2.00
2019-06-10T22:57:23.501Z,2.42
2019-06-10T22:59:51.267Z,1.98
2019-06-10T23:02:17.937Z,2.20
2019-06-10T23:04:44.290Z,2.08
2019-06-10T23:07:13.204Z,2.00
2019-06-10T23:09:38.917Z,1.92
2019-06-10T23:12:05.161Z,1.90
2019-06-10T23:14:33.275Z,1.95
2019-06-10T23:17:00.145Z,2.25
2019-06-10T23:19:27.737Z,2.27
2019-06-10T23:21:55.697Z,2.42
2019-06-10T23:24:22.749Z,2.02
2019-06-10T23:26:49.727Z,2.17
2019-06-10T23:29:16.390Z,2.60
2019-06-10T23:31:51.827Z,2.08
2019-06-10T23:34:11.659Z,2.22
2019-06-10T23:36:38.846Z,2.67
2019-06-10T23:39:05.298Z,2.62
2019-06-10T23:41:32.913Z,2.35
2019-06-10T23:43:59.704Z,2.40
2019-06-10T23:46:26.062Z,2.47
2019-06-10T23:48:53.424Z,2.40
2019-06-10T23:51:19.921Z,2.30
2019-06-10T23:53:46.166Z,2.67
2019-06-10T23:56:12.889Z,2.58
2019-06-10T23:58:39.357Z,2.60
